Share

Key West, FL

Key West International (KEYW) Elev 0 ft | 24.56 °N, 81.75 °W | Change Station

Current weather conditions updated 18 minutes ago

Overcast
Overcast
74 °F
Feels Like 74 °F
N
10
Wind Variable Wind from NNW
Sunrise 7:00 AM
Sunset 7:51 PM
Moon Waning Gibbous

Tomorrow is forecast to be nearly the same temperature as today.

Pressure 30.02 in
Visibility 10.0 miles
Clouds Overcast 4000 ft
Dew Point 62 °F
Humidity 66%
Rainfall 0.00 in
Snow Depth Not available.
UV 0 out of 16
Pollen 6.20 out of 12
Air Quality Not available.
Flu Activity Sporadic
METAR KEYW 202253Z 34009KT 10SM OVC040 23/17 A3002 RMK AO2 SLP164 T02330167

More Conditions Fewer Conditions

Pressure 30.02 in
Visibility 10.0 miles
Clouds Overcast 4000 ft
Dew Point 62 °F
Humidity 66%
Rainfall 0.00 in
Snow Depth Not available.
UV 0 out of 16
Pollen 6.20 out of 12
Air Quality Not available.
Flu Activity Sporadic
METAR KEYW 202253Z 34009KT 10SM OVC040 23/17 A3002 RMK AO2 SLP164 T02330167

More Conditions Fewer Conditions

10-Day Weather Forecast

Almanac

Astronomy

Apr. 20, 2014 Rise Set
Actual Time 7:00 AM EDT 7:51 PM EDT
Civil Twilight 6:37 AM EDT 8:14 PM EDT
Nautical Twilight 6:09 AM EDT 8:42 PM EDT
Astronomical Twilight 5:41 AM EDT 9:10 PM EDT
Moon 12:17 AM EDT 11:31 AM EDT
Length of Visible Light 13h 37m
Length of Day
12h 50m
Tomorrow will be 1m 19s longer.
Waning Gibbous, 65% of the Moon is Illuminated
Today
Waning Gibbous
Apr 22
Last Quarter
Apr 29
New
May 6
First Quarter
May 14
Full

Today's Extremes

State Highs State Lows

Community

  • Easter Dance
    Easter Dance
  • spring skiing mount Baker WA
    spring skiing mount Baker WA
  • Morning Sun
    Morning Sun
  • Happy Easter
    Happy Easter
  • after rain
    after rain

WunderPhotos

Upload Photos

1,703,428 photos uploaded!

WunderBlogs® & News

Nearby

Snow Depth

Station Depth Elevation
No new snow has been reported.

Coastal Water Temperatures

Place Temperature
No Stations Reporting

Earthquake Activity

City Distance Mag. Time & Date
No recent earthquake activity has been reported nearby.
Minimum magnitude displayed is 2.5.

Nearby Weather Stations

Station Location Temp. Heat Index Dew Point Humidity Wind Precip. Elev Updated Type
Key West, FL 73.7 °F 76 °F 63 °F 70% NW  at  0.0 mph 0.00 in / hr 6 ft 7:08 PM EDT Normal
Big Coppitt Key Gulfside, Key West, FL 73.6 °F 76 °F 62 °F 66% ENE  at  4.2 mph - / hr 31 ft 7:02 PM EDT Normal
Cudjoe Key, FL 72.9 °F 74 °F 64 °F 75% WNW  at  5.0 mph 0.00 in / hr 16 ft 7:11 PM EDT Rapid Fire
Breezeswept Estates - Bird Lake - Ramrod, Ramrod Key, FL 72.9 °F 75 °F 62 °F 70% NW  at  9.3 mph 0.00 in / hr 25 ft 7:11 PM EDT Rapid Fire

Show More Stations Show Fewer Stations

What do you think?

We're not finished. Please let us know what you like, what you don't like, and what you are still missing.